Time;durP1;ratioP1;P1;durP2;ratioP2;P2;SDS_P1;SDS_P2;PMS_P1;PMS_P2;Temp;Humidity;BMP_temperature;BMP_pressure;BME280_temperature;BME280_humidity;BME280_pressure;Samples;Min_cycle;Max_cycle;Signal;HPM_P1;HPM_P2
2022/05/28 00:01:26;;;;;;;2.80;2.50;;;8.70;99.90;;;;;;6245927;23;20158;-86
2022/05/28 00:03:57;;;;;;;2.37;2.10;;;8.70;99.90;;;;;;6193925;23;20660;-86
2022/05/28 00:06:24;;;;;;;6.97;2.40;;;8.60;99.90;;;;;;6219629;23;20187;-86
2022/05/28 00:08:50;;;;;;;3.73;2.40;;;8.60;99.90;;;;;;6194490;23;20174;-86
2022/05/28 00:11:26;;;;;;;5.73;2.10;;;8.70;99.90;;;;;;6194349;23;20511;-85
2022/05/28 00:13:52;;;;;;;4.17;2.33;;;;;;;;;;6219188;23;20621;-86
2022/05/28 00:16:18;;;;;;;2.30;2.10;;;8.70;99.90;;;;;;6219422;23;20249;-85
2022/05/28 00:18:44;;;;;;;3.00;2.27;;;8.70;99.90;;;;;;6219332;23;20517;-86
2022/05/28 00:21:12;;;;;;;3.07;2.47;;;8.70;99.90;;;;;;6247742;23;20221;-86
2022/05/28 00:23:39;;;;;;;3.40;2.20;;;8.70;99.90;;;;;;6248458;23;20178;-86
2022/05/28 00:26:06;;;;;;;4.17;2.53;;;8.70;99.90;;;;;;6253586;23;20151;-86
2022/05/28 00:28:32;;;;;;;3.40;2.37;;;8.70;99.90;;;;;;6207964;23;20170;-86
2022/05/28 00:31:00;;;;;;;2.50;2.27;;;8.60;99.90;;;;;;6232781;23;20186;-88
2022/05/28 00:33:26;;;;;;;3.50;2.30;;;8.60;99.90;;;;;;6225863;23;20183;-87
2022/05/28 00:35:52;;;;;;;2.23;2.03;;;8.60;99.90;;;;;;6220855;23;20155;-86
2022/05/28 00:38:18;;;;;;;3.17;2.40;;;8.60;99.90;;;;;;6221219;23;20483;-86
2022/05/28 00:40:49;;;;;;;2.93;2.63;;;8.60;99.90;;;;;;6221391;23;20183;-87
2022/05/28 00:43:15;;;;;;;2.27;2.03;;;8.80;99.90;;;;;;6220768;23;20638;-86
2022/05/28 00:45:42;;;;;;;4.30;2.80;;;8.60;99.90;;;;;;6248135;23;20151;-87
2022/05/28 00:48:09;;;;;;;3.77;2.50;;;8.50;99.90;;;;;;6219871;23;20159;-86
2022/05/28 00:50:36;;;;;;;3.23;2.63;;;8.50;99.90;;;;;;6196162;23;20163;-85
2022/05/28 00:53:05;;;;;;;3.53;2.83;;;8.50;99.90;;;;;;6248096;23;20179;-85
2022/05/28 00:55:33;;;;;;;3.07;2.33;;;8.50;99.90;;;;;;6196372;23;20552;-86
2022/05/28 00:58:01;;;;;;;2.87;2.27;;;8.50;99.90;;;;;;6222245;23;20160;-85
2022/05/28 01:00:27;;;;;;;3.53;2.70;;;8.60;99.90;;;;;;6221057;23;20156;-86
2022/05/28 01:03:19;;;;;;;4.27;3.50;;;8.40;99.90;;;;;;6220620;23;20571;-87
2022/05/28 01:05:54;;;;;;;2.50;2.30;;;8.50;99.90;;;;;;6208265;23;20159;-86
2022/05/28 01:08:48;;;;;;;3.97;2.60;;;8.50;99.90;;;;;;6226617;23;20182;-85
2022/05/28 01:11:20;;;;;;;5.43;2.73;;;8.50;99.90;;;;;;6248744;23;20131;-86
2022/05/28 01:13:57;;;;;;;4.70;2.57;;;8.40;99.90;;;;;;6249522;22;20171;-87
2022/05/28 01:16:35;;;;;;;2.57;2.20;;;8.50;99.90;;;;;;6249184;22;20138;-86
2022/05/28 01:19:32;;;;;;;2.63;2.33;;;8.40;99.90;;;;;;6248932;22;20131;-87
2022/05/28 01:22:04;;;;;;;3.77;2.20;;;8.40;99.90;;;;;;6249282;22;20135;-87
2022/05/28 01:24:42;;;;;;;5.33;2.20;;;8.40;99.90;;;;;;6249031;22;20162;-86
2022/05/28 01:27:26;;;;;;;2.63;2.10;;;8.40;99.90;;;;;;6275092;22;20131;-87
2022/05/28 01:29:56;;;;;;;1.90;1.43;;;8.50;99.90;;;;;;6275231;22;20132;-87
2022/05/28 01:32:25;;;;;;;1.90;1.67;;;8.50;99.90;;;;;;6273825;22;20136;-86
2022/05/28 01:34:52;;;;;;;2.00;1.53;;;8.40;99.90;;;;;;6274997;22;20171;-87
2022/05/28 01:37:19;;;;;;;2.90;1.83;;;8.40;99.90;;;;;;6274638;22;20199;-88
2022/05/28 01:39:46;;;;;;;1.93;1.70;;;8.40;99.90;;;;;;6248379;23;20162;-88
2022/05/28 01:42:14;;;;;;;2.00;1.60;;;8.40;99.90;;;;;;6264365;23;20178;-87
2022/05/28 01:44:43;;;;;;;1.50;1.40;;;8.50;99.90;;;;;;6220771;23;20200;-88
2022/05/28 01:47:11;;;;;;;2.00;1.53;;;8.40;99.90;;;;;;6221432;23;20275;-87
2022/05/28 01:49:38;;;;;;;2.03;1.80;;;8.30;99.90;;;;;;6218532;23;20162;-87
2022/05/28 01:52:05;;;;;;;1.30;1.20;;;8.30;99.90;;;;;;6216246;23;20641;-87
2022/05/28 01:54:36;;;;;;;2.93;1.67;;;8.30;99.90;;;;;;6217133;23;20501;-87
2022/05/28 01:57:02;;;;;;;2.07;1.60;;;8.20;99.90;;;;;;6217186;23;20637;-87
2022/05/28 01:59:37;;;;;;;1.63;1.50;;;8.20;99.90;;;;;;6215706;23;20238;-87
2022/05/28 02:02:06;;;;;;;1.43;1.33;;;8.20;99.90;;;;;;6219718;23;20152;-88
2022/05/28 02:04:35;;;;;;;1.57;1.47;;;8.20;99.90;;;;;;6227155;23;20532;-88
2022/05/28 02:07:06;;;;;;;1.40;1.30;;;8.20;99.90;;;;;;6217350;23;20190;-88
2022/05/28 02:09:37;;;;;;;2.53;1.37;;;8.10;99.90;;;;;;6190593;23;20170;-87
2022/05/28 02:12:28;;;;;;;1.40;1.30;;;8.10;99.90;;;;;;6215021;23;20214;-86
2022/05/28 02:15:17;;;;;;;1.57;1.47;;;8.10;99.90;;;;;;6216281;23;20188;-87
2022/05/28 02:18:20;;;;;;;5.73;2.00;;;8.10;99.90;;;;;;6216657;23;20219;-86
2022/05/28 02:20:52;;;;;;;3.43;2.30;;;8.10;99.90;;;;;;6214985;23;20490;-87
2022/05/28 02:23:44;;;;;;;1.80;1.57;;;8.20;99.90;;;;;;6215058;23;20218;-87
2022/05/28 02:26:14;;;;;;;1.30;1.00;;;8.00;99.90;;;;;;6216161;23;20527;-86
2022/05/28 02:28:42;;;;;;;4.03;1.70;;;8.00;99.90;;;;;;6216937;23;20136;-87
2022/05/28 02:31:17;;;;;;;1.60;1.50;;;8.00;99.90;;;;;;6189693;23;20494;-86
2022/05/28 02:33:44;;;;;;;2.07;1.63;;;7.90;99.90;;;;;;6215982;23;20260;-87
2022/05/28 02:36:14;;;;;;;1.07;1.00;;;8.00;99.90;;;;;;6215980;23;20274;-87
2022/05/28 02:38:40;;;;;;;2.40;1.00;;;8.00;99.90;;;;;;6218133;23;20155;-86
2022/05/28 02:41:06;;;;;;;1.50;1.40;;;;;;;;;;6218173;23;20156;-86
2022/05/28 02:43:32;;;;;;;1.67;1.43;;;7.90;99.90;;;;;;6217966;23;20204;-86
2022/05/28 02:46:00;;;;;;;1.40;1.30;;;7.90;99.90;;;;;;6166714;23;20194;-86
2022/05/28 02:48:25;;;;;;;1.00;1.00;;;7.90;99.90;;;;;;6217547;23;20156;-86
2022/05/28 02:50:51;;;;;;;0.87;0.87;;;7.90;99.90;;;;;;6198769;23;20156;-85
2022/05/28 02:53:17;;;;;;;2.43;1.53;;;7.80;99.90;;;;;;6164685;23;20198;-86
2022/05/28 02:55:42;;;;;;;1.57;1.47;;;7.80;99.90;;;;;;6190016;23;20183;-86
2022/05/28 02:58:08;;;;;;;2.00;1.63;;;7.90;99.90;;;;;;6189365;23;20187;-87
2022/05/28 03:00:34;;;;;;;2.00;1.50;;;7.90;99.90;;;;;;6214466;23;20218;-86
2022/05/28 03:03:00;;;;;;;1.20;1.10;;;7.90;99.90;;;;;;6216405;23;20179;-86
2022/05/28 03:05:26;;;;;;;2.77;2.50;;;;;;;;;;6189658;23;20529;-86
2022/05/28 03:07:52;;;;;;;2.53;1.63;;;7.90;99.90;;;;;;6216361;23;20156;-87
2022/05/28 03:10:18;;;;;;;1.97;1.77;;;8.00;99.90;;;;;;6215629;23;20605;-89
2022/05/28 03:12:44;;;;;;;5.43;2.00;;;8.00;99.90;;;;;;6214565;23;20179;-86
2022/05/28 03:15:10;;;;;;;1.40;1.30;;;8.00;99.90;;;;;;6214250;23;20160;-86
2022/05/28 03:17:37;;;;;;;1.23;1.13;;;8.10;99.90;;;;;;6214441;23;20536;-86
2022/05/28 03:20:03;;;;;;;1.83;1.60;;;8.10;99.90;;;;;;6214572;23;20159;-86
2022/05/28 03:22:29;;;;;;;1.23;1.13;;;8.10;99.90;;;;;;6215753;23;20159;-86
2022/05/28 03:24:55;;;;;;;3.43;1.40;;;8.20;99.90;;;;;;6214718;23;20155;-87
2022/05/28 03:27:21;;;;;;;1.23;1.13;;;8.30;99.90;;;;;;6189888;23;20164;-86
2022/05/28 03:29:46;;;;;;;1.50;1.40;;;8.40;99.90;;;;;;6189677;23;20164;-86
2022/05/28 03:32:12;;;;;;;2.47;1.60;;;8.50;99.90;;;;;;6215526;23;20159;-86
2022/05/28 03:34:38;;;;;;;2.00;1.57;;;8.50;99.90;;;;;;6189185;23;20639;-86
2022/05/28 03:37:03;;;;;;;1.53;1.43;;;8.60;99.90;;;;;;6189590;23;20184;-86
2022/05/28 03:39:29;;;;;;;1.70;1.60;;;8.60;99.90;;;;;;6189586;23;20191;-86
2022/05/28 03:41:55;;;;;;;3.73;1.20;;;8.50;99.90;;;;;;6190020;23;20206;-87
2022/05/28 03:44:21;;;;;;;4.00;1.50;;;8.60;99.90;;;;;;6189210;23;20210;-85
2022/05/28 03:46:47;;;;;;;2.70;1.37;;;8.70;99.90;;;;;;6215010;23;20152;-86
2022/05/28 03:49:28;;;;;;;1.23;1.23;;;8.70;99.90;;;;;;6216030;23;20148;-86
2022/05/28 03:51:55;;;;;;;2.53;1.33;;;8.80;99.90;;;;;;6215538;23;20158;-87
2022/05/28 03:54:21;;;;;;;1.43;1.33;;;8.80;99.90;;;;;;6214856;23;20196;-86
2022/05/28 03:56:48;;;;;;;0.80;0.80;;;8.80;99.90;;;;;;6216529;23;20164;-86
2022/05/28 03:59:14;;;;;;;1.17;1.07;;;8.80;99.90;;;;;;6216115;23;20155;-86
2022/05/28 04:01:41;;;;;;;3.53;1.70;;;8.80;99.90;;;;;;6191284;23;20601;-86
2022/05/28 04:04:07;;;;;;;2.20;1.27;;;8.80;99.90;;;;;;6218124;23;20231;-86
2022/05/28 04:06:35;;;;;;;2.33;1.20;;;8.90;99.90;;;;;;6217673;23;20179;-86
2022/05/28 04:09:02;;;;;;;1.97;1.50;;;9.00;99.90;;;;;;6218208;23;20158;-87
2022/05/28 04:11:28;;;;;;;0.90;0.90;;;9.00;99.90;;;;;;6216269;23;20156;-87
2022/05/28 04:13:54;;;;;;;2.63;1.30;;;9.10;99.90;;;;;;6217400;23;20494;-88
2022/05/28 04:16:20;;;;;;;8.67;1.57;;;9.20;99.90;;;;;;6191111;23;20160;-87
2022/05/28 04:18:45;;;;;;;1.97;1.27;;;9.40;99.90;;;;;;6217831;23;20155;-89
2022/05/28 04:21:11;;;;;;;1.53;1.10;;;9.40;99.90;;;;;;6167094;23;20679;-88
2022/05/28 04:23:37;;;;;;;1.97;1.77;;;9.40;99.90;;;;;;6215918;23;20217;-88
2022/05/28 04:26:02;;;;;;;1.63;1.10;;;9.40;99.90;;;;;;6216379;23;20622;-89
2022/05/28 04:28:28;;;;;;;1.73;1.63;;;9.40;99.90;;;;;;6215956;23;20168;-88
2022/05/28 04:30:54;;;;;;;3.43;1.10;;;9.40;99.90;;;;;;6191366;23;20298;-89
2022/05/28 04:33:20;;;;;;;1.30;1.20;;;9.60;99.90;;;;;;6215955;23;20222;-87
2022/05/28 04:35:45;;;;;;;7.40;1.40;;;9.60;99.90;;;;;;6190972;23;20650;-88
2022/05/28 04:38:13;;;;;;;3.33;1.47;;;9.70;99.90;;;;;;6216104;23;20170;-88
2022/05/28 04:40:39;;;;;;;1.37;1.23;;;9.70;99.90;;;;;;6215887;23;20160;-89
2022/05/28 04:43:05;;;;;;;11.67;2.07;;;9.70;99.90;;;;;;6190773;23;20270;-88
2022/05/28 04:45:31;;;;;;;3.00;1.80;;;;;;;;;;6215417;23;20161;-88
2022/05/28 04:47:56;;;;;;;8.43;1.70;;;9.80;99.90;;;;;;6216048;23;20552;-87
2022/05/28 04:50:22;;;;;;;1.57;1.47;;;9.80;99.90;;;;;;6190571;23;20160;-87
2022/05/28 04:52:48;;;;;;;1.40;1.30;;;9.90;99.90;;;;;;6190958;23;20171;-86
2022/05/28 04:55:14;;;;;;;1.17;1.07;;;9.90;99.90;;;;;;6215952;23;20152;-87
2022/05/28 04:57:39;;;;;;;2.13;1.13;;;9.90;99.90;;;;;;6216124;23;20460;-87
2022/05/28 05:00:14;;;;;;;1.47;1.20;;;9.90;99.90;;;;;;6191011;23;20160;-85
2022/05/28 05:02:39;;;;;;;4.07;1.07;;;10.00;99.90;;;;;;6217799;23;20147;-87
2022/05/28 05:05:06;;;;;;;1.00;1.00;;;10.00;99.90;;;;;;6215466;23;20163;-86
2022/05/28 05:07:32;;;;;;;1.60;1.50;;;10.10;99.90;;;;;;6215441;23;20156;-87
2022/05/28 05:09:57;;;;;;;4.97;1.20;;;10.10;99.90;;;;;;6215595;23;20597;-88
2022/05/28 05:12:23;;;;;;;3.77;2.33;;;10.10;99.90;;;;;;6190339;23;20234;-86
2022/05/28 05:14:49;;;;;;;1.53;1.37;;;10.10;99.90;;;;;;6217690;23;20206;-87
2022/05/28 05:17:15;;;;;;;2.23;1.57;;;10.10;99.90;;;;;;6219503;23;20219;-87
2022/05/28 05:19:40;;;;;;;1.93;1.50;;;10.10;99.90;;;;;;6215962;23;20160;-85
2022/05/28 05:22:06;;;;;;;2.73;2.40;;;10.10;99.90;;;;;;6216624;23;20156;-86
2022/05/28 05:24:33;;;;;;;1.33;1.20;;;10.20;99.90;;;;;;6215109;23;20163;-87
2022/05/28 05:27:00;;;;;;;3.03;1.60;;;10.20;99.90;;;;;;6190224;23;20653;-86
2022/05/28 05:29:26;;;;;;;2.50;1.67;;;10.30;99.90;;;;;;6189932;23;20622;-86
2022/05/28 05:31:51;;;;;;;4.23;1.33;;;10.50;99.90;;;;;;6217080;23;20168;-86
2022/05/28 05:34:17;;;;;;;2.47;1.73;;;10.70;99.90;;;;;;6218731;23;20560;-86
2022/05/28 05:36:43;;;;;;;1.60;1.50;;;10.90;99.90;;;;;;6215536;23;20152;-87
2022/05/28 05:39:08;;;;;;;1.60;1.50;;;11.00;99.90;;;;;;6222324;23;20523;-90
2022/05/28 05:41:38;;;;;;;1.80;1.10;;;11.10;99.90;;;;;;6194759;23;20246;-90
2022/05/28 05:44:04;;;;;;;1.45;1.35;;;11.20;99.90;;;;;;6241195;23;20190;-90
2022/05/28 05:46:31;;;;;;;4.22;1.85;;;;;;;;;;6195713;23;20225;-93
2022/05/28 05:48:57;;;;;;;1.40;1.30;;;;;;;;;;6195469;23;20587;-90
2022/05/28 05:51:23;;;;;;;1.85;1.52;;;11.30;99.90;;;;;;6195252;23;20182;-90
2022/05/28 05:53:49;;;;;;;1.98;1.85;;;11.40;99.90;;;;;;6195661;23;20622;-86
2022/05/28 05:56:14;;;;;;;4.10;1.70;;;11.50;99.90;;;;;;6195726;23;20155;-89
2022/05/28 05:58:40;;;;;;;1.92;1.30;;;11.80;99.90;;;;;;6194766;23;20182;-90
2022/05/28 06:01:06;;;;;;;2.15;1.50;;;11.60;99.90;;;;;;6217467;23;20155;-88
2022/05/28 06:03:33;;;;;;;1.80;1.60;;;11.70;99.90;;;;;;6218217;23;20162;-90
2022/05/28 06:06:00;;;;;;;1.58;1.15;;;11.50;99.90;;;;;;6245436;23;20155;-90
2022/05/28 06:08:26;;;;;;;1.60;1.50;;;9.10;99.90;;;;;;6219680;23;20206;-88
2022/05/28 06:10:52;;;;;;;3.53;0.65;;;11.60;99.90;;;;;;6220448;23;20162;-89
2022/05/28 06:13:18;;;;;;;0.90;0.90;;;11.60;99.90;;;;;;6221398;23;20269;-88
2022/05/28 06:15:45;;;;;;;1.00;1.00;;;12.00;99.90;;;;;;6197186;23;20195;-89
2022/05/28 06:18:15;;;;;;;1.42;0.90;;;11.90;99.90;;;;;;6220113;23;20167;-88
2022/05/28 06:20:42;;;;;;;1.10;1.00;;;11.90;99.90;;;;;;6219964;23;20198;-87
2022/05/28 06:23:08;;;;;;;2.85;0.90;;;11.90;99.90;;;;;;6196137;23;20170;-86
2022/05/28 06:25:36;;;;;;;1.17;1.08;;;12.00;99.90;;;;;;6247436;23;20176;-88
2022/05/28 06:28:02;;;;;;;1.75;0.95;;;12.00;99.90;;;;;;6248039;23;20185;-85
2022/05/28 06:30:27;;;;;;;2.03;0.80;;;12.10;99.90;;;;;;6221260;23;20205;-86
2022/05/28 06:32:53;;;;;;;0.68;0.68;;;12.10;99.90;;;;;;6246043;23;20151;-87
2022/05/28 06:35:19;;;;;;;0.90;0.90;;;11.90;99.90;;;;;;6194507;23;20532;-88
2022/05/28 06:37:47;;;;;;;1.83;0.80;;;12.00;99.90;;;;;;6169777;23;20861;-86
2022/05/28 06:40:13;;;;;;;0.70;0.70;;;12.10;99.90;;;;;;6195091;23;20164;-88
2022/05/28 06:42:41;;;;;;;3.65;1.23;;;12.10;99.90;;;;;;6194804;23;20164;-88
2022/05/28 06:45:13;;;;;;;2.05;0.77;;;12.20;99.90;;;;;;6220632;23;20231;-88
2022/05/28 06:47:40;;;;;;;0.63;0.63;;;12.20;99.90;;;;;;6196735;23;20523;-84
2022/05/28 06:52:51;;;;;;;1.20;0.70;;;12.10;99.90;;;;;;6246459;23;20155;-83
2022/05/28 06:55:16;;;;;;;0.95;0.90;;;12.40;99.90;;;;;;6220430;23;20163;-84
2022/05/28 06:57:42;;;;;;;2.53;1.00;;;12.60;99.90;;;;;;6220428;23;20481;-84
2022/05/28 07:00:08;;;;;;;1.95;1.05;;;12.50;99.90;;;;;;6246415;23;20601;-83
2022/05/28 07:02:34;;;;;;;0.77;0.60;;;12.20;99.90;;;;;;6219282;23;20191;-86
2022/05/28 07:04:59;;;;;;;1.67;1.13;;;12.00;99.90;;;;;;6246520;23;20559;-85
2022/05/28 07:07:25;;;;;;;1.23;0.93;;;12.00;99.90;;;;;;6246673;23;20579;-86
2022/05/28 07:09:51;;;;;;;1.48;0.93;;;12.00;99.90;;;;;;6219455;23;20250;-87
2022/05/28 07:12:16;;;;;;;0.70;0.52;;;12.20;99.90;;;;;;6194421;23;20164;-88
2022/05/28 07:14:42;;;;;;;2.15;1.02;;;12.40;99.90;;;;;;6246490;23;20187;-84
2022/05/28 07:17:08;;;;;;;0.95;0.95;;;12.50;99.90;;;;;;6170673;23;20199;-85
2022/05/28 07:19:33;;;;;;;1.35;1.00;;;12.50;99.90;;;;;;6229914;23;20135;-88
2022/05/28 07:21:59;;;;;;;0.70;0.70;;;12.70;99.90;;;;;;6273896;22;20174;-86
2022/05/28 07:24:25;;;;;;;1.15;1.00;;;12.80;99.90;;;;;;6247809;23;20143;-88
2022/05/28 07:26:52;;;;;;;0.73;0.73;;;13.50;99.90;;;;;;6197445;23;20194;-85
2022/05/28 07:29:18;;;;;;;0.90;0.85;;;13.10;99.90;;;;;;6221939;23;20198;-86
2022/05/28 07:31:43;;;;;;;2.70;0.80;;;13.10;99.90;;;;;;6248079;23;20147;-88
2022/05/28 07:34:09;;;;;;;2.25;0.70;;;13.10;99.90;;;;;;6222503;22;20175;-86
2022/05/28 07:36:35;;;;;;;2.05;1.00;;;13.00;99.90;;;;;;6247288;23;20207;-92
2022/05/28 07:39:02;;;;;;;1.65;1.20;;;13.20;99.90;;;;;;6272630;22;20235;-93
2022/05/28 07:41:28;;;;;;;1.15;0.80;;;13.20;99.90;;;;;;6247892;23;20147;-85
2022/05/28 07:43:55;;;;;;;0.82;0.82;;;13.40;99.90;;;;;;6215909;23;20198;-87
2022/05/28 07:46:27;;;;;;;3.40;0.80;;;13.20;99.90;;;;;;6241357;23;20136;-87
2022/05/28 07:48:57;;;;;;;0.95;0.95;;;13.10;99.90;;;;;;6241113;23;20144;-95
2022/05/28 07:51:26;;;;;;;1.27;0.93;;;13.10;99.90;;;;;;6236722;23;20148;-86
2022/05/28 07:53:52;;;;;;;0.88;0.60;;;13.20;99.90;;;;;;6216150;23;20257;-84
2022/05/28 07:56:18;;;;;;;0.60;0.60;;;13.00;99.90;;;;;;6190622;23;20263;-85
2022/05/28 08:02:06;;;;;;;0.65;0.65;;;12.60;99.90;;;;;;6217171;23;20127;-87
2022/05/28 08:04:31;;;;;;;2.45;1.33;;;12.80;99.90;;;;;;6214630;23;20194;-85
2022/05/28 08:06:57;;;;;;;1.27;1.10;;;12.90;99.90;;;;;;6190577;23;20164;-86
2022/05/28 08:09:23;;;;;;;0.60;0.60;;;;;;;;;;6191791;23;20210;-87
2022/05/28 08:11:49;;;;;;;0.50;0.50;;;13.00;99.90;;;;;;6191475;23;20519;-86
2022/05/28 08:14:15;;;;;;;0.60;0.60;;;12.90;99.90;;;;;;6190144;23;20202;-86
2022/05/28 08:16:41;;;;;;;0.80;0.80;;;;;;;;;;6214965;23;20152;-85
2022/05/28 08:19:06;;;;;;;2.20;0.77;;;13.00;99.90;;;;;;6190604;23;20171;-86
2022/05/28 08:24:19;;;;;;;1.73;1.63;;;13.50;99.90;;;;;;6214674;23;20558;-88
2022/05/28 08:26:45;;;;;;;1.05;0.95;;;13.40;99.90;;;;;;6189043;23;20160;-87
2022/05/28 08:29:11;;;;;;;1.77;0.80;;;13.60;99.90;;;;;;6188923;23;20186;-86
2022/05/28 08:31:36;;;;;;;0.95;0.63;;;13.90;99.90;;;;;;6213720;23;20188;-91
2022/05/28 08:34:02;;;;;;;2.25;0.75;;;14.00;99.90;;;;;;6186695;23;20187;-86
2022/05/28 08:36:28;;;;;;;1.50;0.80;;;13.90;99.90;;;;;;6163970;23;20191;-85
2022/05/28 08:38:54;;;;;;;3.00;0.75;;;13.80;99.90;;;;;;6189056;23;20167;-85
2022/05/28 08:41:26;;;;;;;0.63;0.63;;;14.00;99.90;;;;;;6214107;23;20156;-88
2022/05/28 08:43:57;;;;;;;0.55;0.55;;;13.80;99.90;;;;;;6213395;23;20223;-89
2022/05/28 08:46:26;;;;;;;0.50;0.50;;;13.90;99.90;;;;;;6215306;23;20255;-86
2022/05/28 08:48:54;;;;;;;0.93;0.68;;;13.80;99.90;;;;;;6216260;23;20183;-86
2022/05/28 08:51:38;;;;;;;0.63;0.63;;;13.50;99.90;;;;;;6215995;23;20595;-88
2022/05/28 08:54:28;;;;;;;3.30;0.93;;;13.30;99.90;;;;;;6214142;23;20287;-89
2022/05/28 08:56:59;;;;;;;2.53;1.13;;;13.00;99.90;;;;;;6214089;23;20159;-86
2022/05/28 08:59:37;;;;;;;0.50;0.50;;;13.10;99.90;;;;;;6217452;23;20175;-86
2022/05/28 09:02:10;;;;;;;0.98;0.98;;;13.00;99.90;;;;;;6217791;23;20156;-87
2022/05/28 09:04:40;;;;;;;2.40;0.63;;;13.60;99.90;;;;;;6216401;23;20164;-87
2022/05/28 09:07:12;;;;;;;1.25;1.10;;;13.50;99.90;;;;;;6215066;23;20179;-89
2022/05/28 09:09:49;;;;;;;0.70;0.70;;;13.50;99.90;;;;;;6214837;23;20164;-87
2022/05/28 09:12:21;;;;;;;0.75;0.75;;;13.70;99.90;;;;;;6214666;23;20164;-87
2022/05/28 09:14:47;;;;;;;2.80;0.70;;;13.70;99.90;;;;;;6214353;23;20194;-87
2022/05/28 09:17:33;;;;;;;0.95;0.88;;;13.50;99.90;;;;;;6167893;23;20164;-86
2022/05/28 09:20:08;;;;;;;1.92;0.90;;;13.40;99.90;;;;;;6222175;23;20218;-89
2022/05/28 09:22:34;;;;;;;5.45;0.75;;;13.30;99.90;;;;;;6219620;23;20579;-86
2022/05/28 09:25:00;;;;;;;1.95;0.80;;;13.40;99.90;;;;;;6216643;23;20167;-87
2022/05/28 09:27:31;;;;;;;0.60;0.60;;;13.60;99.90;;;;;;6215636;23;20462;-88
2022/05/28 09:30:31;;;;;;;0.70;0.70;;;13.80;99.90;;;;;;6215454;23;20266;-87
2022/05/28 09:33:23;;;;;;;1.05;0.73;;;14.00;99.90;;;;;;6222610;23;20160;-91
2022/05/28 09:36:02;;;;;;;0.60;0.60;;;14.20;96.30;;;;;;6215519;23;20532;-88
2022/05/28 09:38:38;;;;;;;1.63;0.80;;;14.40;95.90;;;;;;6211032;23;20144;-88
2022/05/28 09:42:05;;;;;;;1.30;0.70;;;14.80;95.00;;;;;;6215071;23;20144;-86
2022/05/28 09:45:03;;;;;;;1.27;0.70;;;15.00;91.50;;;;;;6097621;23;20246;-85
2022/05/28 09:47:29;;;;;;;1.13;0.90;;;14.90;85.00;;;;;;6215725;23;20154;-87
2022/05/28 09:49:57;;;;;;;0.80;0.80;;;14.70;90.40;;;;;;6189802;23;20187;-84
2022/05/28 09:54:16;;;;;;;0.70;0.70;;;14.90;86.00;;;;;;6215507;23;20587;-86
2022/05/28 09:55:20;;;;;;;1.40;0.73;;;15.00;84.50;;;;;;6215925;23;20255;-85
2022/05/28 09:58:02;;;;;;;0.77;0.50;;;14.90;81.30;;;;;;6214712;23;20167;-86
2022/05/28 10:00:28;;;;;;;0.52;0.50;;;14.90;83.20;;;;;;6215184;23;20621;-84
2022/05/28 10:05:56;;;;;;;0.90;0.57;;;14.60;79.00;;;;;;6216477;23;20507;-87
2022/05/28 10:08:30;;;;;;;0.65;0.65;;;14.20;80.60;;;;;;6215323;23;20494;-84
2022/05/28 10:11:01;;;;;;;1.15;0.90;;;14.30;85.90;;;;;;6214353;23;20213;-86
2022/05/28 10:13:30;;;;;;;0.68;0.68;;;14.40;86.60;;;;;;6215038;23;20187;-85
2022/05/28 10:15:59;;;;;;;0.60;0.60;;;14.80;81.30;;;;;;6214980;23;20152;-84
2022/05/28 10:19:13;;;;;;;5.13;3.58;;;14.50;81.40;;;;;;6214357;23;20164;-82
2022/05/28 10:21:40;;;;;;;2.25;0.60;;;14.80;82.40;;;;;;6129206;23;20157;-85
2022/05/28 10:24:16;;;;;;;0.40;0.40;;;15.00;79.50;;;;;;6129127;23;20168;-85
2022/05/28 10:27:01;;;;;;;0.60;0.50;;;15.20;78.30;;;;;;6192009;23;20254;-85
2022/05/28 10:29:38;;;;;;;1.40;0.75;;;15.40;77.70;;;;;;6215843;23;20152;-83
2022/05/28 10:32:16;;;;;;;0.65;0.65;;;15.50;79.00;;;;;;6216678;23;20198;-85
2022/05/28 10:34:41;;;;;;;0.60;0.60;;;15.50;81.70;;;;;;6215126;23;20692;-85
2022/05/28 10:37:16;;;;;;;0.57;0.57;;;15.20;81.00;;;;;;6214889;23;20156;-86
2022/05/28 10:39:43;;;;;;;0.77;0.77;;;14.90;82.90;;;;;;6215084;23;20156;-85
2022/05/28 10:42:12;;;;;;;1.52;1.02;;;14.50;88.60;;;;;;6217933;23;20156;-85
2022/05/28 10:44:40;;;;;;;0.60;0.60;;;14.20;93.50;;;;;;6241648;23;20642;-85
2022/05/28 10:47:30;;;;;;;0.77;0.50;;;14.30;91.20;;;;;;6219894;23;20155;-88
2022/05/28 10:50:14;;;;;;;0.93;0.93;;;14.60;90.70;;;;;;6245838;23;20542;-85
2022/05/28 10:53:09;;;;;;;0.50;0.50;;;14.70;89.10;;;;;;6219648;23;20155;-86
2022/05/28 10:55:52;;;;;;;0.70;0.70;;;14.60;87.70;;;;;;6220764;23;20250;-85
2022/05/28 10:58:36;;;;;;;1.08;0.70;;;14.70;85.00;;;;;;6219565;23;20170;-83
2022/05/28 11:01:13;;;;;;;0.80;0.60;;;15.00;86.30;;;;;;6246166;23;20186;-87
2022/05/28 11:03:47;;;;;;;0.68;0.68;;;15.20;84.10;;;;;;6246709;23;20516;-86
2022/05/28 11:06:25;;;;;;;0.82;0.70;;;15.50;82.10;;;;;;6220072;23;20162;-87
2022/05/28 11:08:53;;;;;;;0.95;0.70;;;15.60;76.30;;;;;;6219134;23;20510;-83
2022/05/28 11:11:38;;;;;;;0.50;0.50;;;15.60;77.90;;;;;;6246100;23;20574;-85
2022/05/28 11:14:25;;;;;;;0.50;0.43;;;15.80;71.30;;;;;;6219913;23;20187;-85
2022/05/28 11:16:58;;;;;;;0.40;0.40;;;15.80;70.20;;;;;;6219296;23;20262;-86
2022/05/28 11:19:50;;;;;;;0.90;0.65;;;15.80;70.70;;;;;;6219386;23;20162;-85
2022/05/28 11:22:28;;;;;;;0.95;0.60;;;15.90;70.00;;;;;;6234028;23;20234;-86
2022/05/28 11:25:04;;;;;;;0.55;0.40;;;15.80;70.80;;;;;;6245854;23;20174;-86
2022/05/28 11:27:43;;;;;;;0.60;0.60;;;15.50;71.80;;;;;;6215535;23;20166;-86
2022/05/28 11:30:19;;;;;;;2.00;1.02;;;15.90;68.00;;;;;;6262751;23;20162;-85
2022/05/28 11:32:47;;;;;;;2.08;0.60;;;16.00;66.10;;;;;;6257007;23;20226;-85
2022/05/28 11:35:26;;;;;;;1.33;0.77;;;16.50;65.30;;;;;;6221491;23;20568;-87
2022/05/28 11:38:24;;;;;;;0.47;0.47;;;16.50;65.60;;;;;;6219828;23;20174;-86
2022/05/28 11:41:12;;;;;;;1.48;0.50;;;16.30;65.50;;;;;;6246140;23;20165;-85
2022/05/28 11:43:46;;;;;;;0.50;0.50;;;16.30;63.50;;;;;;6220766;23;20195;-86
2022/05/28 11:46:39;;;;;;;0.45;0.45;;;16.30;63.50;;;;;;6218896;23;20583;-84
2022/05/28 11:52:32;;;;;;;0.60;0.60;;;16.40;64.60;;;;;;6248674;23;20199;-85
2022/05/28 11:55:14;;;;;;;0.50;0.50;;;16.20;61.10;;;;;;6221149;23;20689;-87
2022/05/28 11:57:45;;;;;;;0.93;0.60;;;17.40;64.90;;;;;;6221176;23;20155;-85
2022/05/28 12:00:14;;;;;;;2.50;0.52;;;15.60;63.00;;;;;;6252395;23;20159;-88
2022/05/28 12:02:54;;;;;;;0.50;0.50;;;15.80;65.40;;;;;;6235659;23;20189;-86
2022/05/28 12:05:24;;;;;;;0.47;0.47;;;15.90;64.30;;;;;;6259842;23;20143;-86
2022/05/28 12:08:04;;;;;;;0.55;0.55;;;15.90;67.10;;;;;;6258588;23;20148;-87
2022/05/28 12:10:51;;;;;;;1.70;0.40;;;16.30;69.60;;;;;;6235151;23;20155;-87
2022/05/28 12:13:51;;;;;;;0.82;0.50;;;16.00;59.60;;;;;;6255129;23;20538;-87
2022/05/28 12:16:37;;;;;;;0.40;0.40;;;16.10;61.30;;;;;;6205584;23;20155;-87
2022/05/28 12:19:15;;;;;;;0.73;0.40;;;16.40;61.80;;;;;;6223185;23;20178;-88
2022/05/28 12:21:49;;;;;;;0.52;0.52;;;16.20;57.50;;;;;;6227106;23;20159;-90
2022/05/28 12:24:18;;;;;;;0.30;0.30;;;16.40;58.40;;;;;;6226427;23;20193;-87
2022/05/28 12:29:48;;;;;;;0.70;0.43;;;16.20;58.00;;;;;;6250009;23;20139;-87
2022/05/28 12:32:14;;;;;;;1.25;0.70;;;13.20;57.80;;;;;;6250124;23;20585;-87
2022/05/28 12:35:01;;;;;;;1.17;0.40;;;16.30;66.30;;;;;;6223163;23;20262;-87
2022/05/28 12:37:50;;;;;;;1.05;0.60;;;16.40;71.50;;;;;;6249069;23;20158;-85
2022/05/28 12:40:56;;;;;;;1.42;0.45;;;15.60;76.10;;;;;;6199303;23;20242;-85
2022/05/28 12:43:38;;;;;;;2.58;0.77;;;16.00;77.10;;;;;;6221878;23;20199;-87
2022/05/28 12:46:19;;;;;;;1.92;0.70;;;16.00;78.70;;;;;;6249509;23;20178;-87
2022/05/28 12:48:49;;;;;;;1.08;0.35;;;16.00;79.60;;;;;;6220707;23;20247;-86
2022/05/28 12:51:48;;;;;;;1.35;0.77;;;15.70;82.60;;;;;;6220513;23;20152;-86
2022/05/28 12:54:24;;;;;;;0.85;0.50;;;15.30;84.40;;;;;;6248709;23;20171;-88
2022/05/28 12:56:50;;;;;;;0.40;0.40;;;15.00;87.20;;;;;;6221536;23;20162;-88
2022/05/28 12:59:25;;;;;;;0.70;0.70;;;14.90;86.90;;;;;;6223063;23;20231;-87
2022/05/28 13:01:59;;;;;;;0.63;0.63;;;14.50;88.00;;;;;;6225961;23;20158;-91
2022/05/28 13:04:30;;;;;;;0.60;0.60;;;14.50;90.40;;;;;;6226743;23;20170;-91
2022/05/28 13:06:59;;;;;;;0.50;0.50;;;14.40;93.20;;;;;;6258251;23;20131;-87
2022/05/28 13:09:36;;;;;;;1.38;0.60;;;14.20;82.50;;;;;;6229641;23;20159;-92
2022/05/28 13:12:18;;;;;;;1.17;0.50;;;13.70;90.30;;;;;;6229489;23;20179;-89
2022/05/28 13:15:15;;;;;;;;;;;;;;;;;;;;;
2022/05/28 13:18:21;;;;;;;3.35;0.52;;;13.00;99.90;;;;;;6266646;23;20148;-92
2022/05/28 13:21:24;;;;;;;0.55;0.55;;;12.90;99.90;;;;;;6214161;22;20143;-91
2022/05/28 13:24:30;;;;;;;;;;;;;;;;;;;;;
2022/05/28 13:27:29;;;;;;;;;;;;;;;;;;;;;
2022/05/28 13:30:21;;;;;;;4.05;0.70;;;11.80;99.90;;;;;;6273677;22;20123;-91
2022/05/28 13:36:02;;;;;;;6.53;1.75;;;11.70;99.90;;;;;;6273020;22;20159;-90
2022/05/28 13:38:41;;;;;;;5.15;0.95;;;11.80;99.90;;;;;;6247228;22;20149;-89
2022/05/28 13:41:26;;;;;;;0.65;0.65;;;11.70;99.90;;;;;;6247025;22;20143;-90
2022/05/28 13:44:19;;;;;;;;;;;;;;;;;;;;;